createdAt,value
2019-03-20T00:01:27.964Z,88.10
2019-03-20T00:04:07.878Z,87.90
2019-03-20T00:06:47.863Z,88.00
2019-03-20T00:09:27.593Z,88.50
2019-03-20T00:12:07.795Z,88.40
2019-03-20T00:14:48.074Z,88.50
2019-03-20T00:17:27.757Z,88.90
2019-03-20T00:20:07.769Z,88.80
2019-03-20T00:22:48.066Z,88.30
2019-03-20T00:25:28.459Z,87.90
2019-03-20T00:28:08.362Z,87.70
2019-03-20T00:30:48.118Z,87.50
2019-03-20T00:33:28.112Z,87.40
2019-03-20T00:36:07.949Z,87.50
2019-03-20T00:38:48.096Z,87.10
2019-03-20T00:41:28.312Z,87.00
2019-03-20T00:44:08.354Z,87.20
2019-03-20T00:46:48.710Z,87.40
2019-03-20T00:49:28.688Z,88.60
2019-03-20T00:52:08.967Z,88.60
2019-03-20T00:54:48.808Z,88.50
2019-03-20T00:57:28.345Z,88.80
2019-03-20T01:00:08.144Z,89.30
2019-03-20T01:02:48.188Z,89.30
2019-03-20T01:05:28.309Z,89.10
2019-03-20T01:08:08.165Z,89.00
2019-03-20T01:10:48.119Z,89.00
2019-03-20T01:13:28.196Z,88.80
2019-03-20T01:16:07.816Z,88.80
2019-03-20T01:18:48.028Z,88.80
2019-03-20T01:21:28.365Z,88.90
2019-03-20T01:24:08.758Z,89.00
2019-03-20T01:26:48.544Z,89.00
2019-03-20T01:29:28.869Z,89.00
2019-03-20T01:32:09.356Z,89.20
2019-03-20T01:34:53.005Z,89.20
2019-03-20T01:37:20.530Z,89.20
2019-03-20T01:40:07.797Z,88.90
2019-03-20T01:42:48.091Z,88.90
2019-03-20T01:45:28.077Z,89.40
2019-03-20T01:48:08.547Z,89.90
2019-03-20T01:50:48.452Z,90.00
2019-03-20T01:53:29.077Z,90.30
2019-03-20T01:56:09.223Z,90.00
2019-03-20T01:58:49.012Z,89.70
2019-03-20T02:01:29.003Z,90.00
2019-03-20T02:04:09.370Z,90.20
2019-03-20T02:09:28.792Z,90.00
2019-03-20T02:12:09.085Z,90.20
2019-03-20T02:14:49.225Z,90.40
2019-03-20T02:17:29.112Z,90.80
2019-03-20T02:20:09.229Z,90.80
2019-03-20T02:22:49.485Z,90.50
2019-03-20T02:25:29.504Z,90.30
2019-03-20T02:28:09.116Z,90.60
2019-03-20T02:30:49.240Z,91.10
2019-03-20T02:33:29.479Z,91.30
2019-03-20T02:36:09.585Z,91.30
2019-03-20T02:38:49.724Z,91.10
2019-03-20T02:41:30.047Z,91.30
2019-03-20T02:43:57.979Z,91.20
2019-03-20T02:46:44.750Z,91.30
2019-03-20T02:49:31.572Z,91.30
2019-03-20T02:52:11.330Z,91.30
2019-03-20T02:54:51.225Z,91.40
2019-03-20T02:57:31.554Z,90.80
2019-03-20T03:00:11.629Z,90.30
2019-03-20T03:02:51.094Z,91.00
2019-03-20T03:05:31.392Z,91.00
2019-03-20T03:08:11.208Z,91.40
2019-03-20T03:10:51.319Z,91.20
2019-03-20T03:13:31.342Z,91.00
2019-03-20T03:16:11.184Z,90.40
2019-03-20T03:18:51.456Z,89.90
2019-03-20T03:21:31.299Z,90.40
2019-03-20T03:24:11.425Z,90.80
2019-03-20T03:26:51.687Z,91.00
2019-03-20T03:29:31.536Z,90.90
2019-03-20T03:32:11.596Z,90.80
2019-03-20T03:34:51.450Z,90.80
2019-03-20T03:37:31.554Z,90.90
2019-03-20T03:40:11.413Z,90.90
2019-03-20T03:42:51.766Z,90.90
2019-03-20T03:45:31.700Z,90.80
2019-03-20T03:48:11.854Z,90.70
2019-03-20T03:50:51.702Z,91.00
2019-03-20T03:53:31.905Z,91.50
2019-03-20T03:56:11.838Z,91.60
2019-03-20T03:58:51.875Z,91.80
2019-03-20T04:01:31.589Z,92.00
2019-03-20T04:04:11.480Z,92.10
2019-03-20T04:06:51.597Z,92.10
2019-03-20T04:09:31.684Z,92.30
2019-03-20T04:12:12.041Z,92.30
2019-03-20T04:14:52.277Z,92.30
2019-03-20T04:17:32.421Z,92.10
2019-03-20T04:20:12.192Z,92.20
2019-03-20T04:22:52.815Z,91.80
2019-03-20T04:25:33.067Z,91.50
2019-03-20T04:28:12.830Z,91.20
2019-03-20T04:30:52.869Z,91.60
2019-03-20T04:33:33.252Z,91.80
2019-03-20T04:36:12.929Z,91.90
2019-03-20T04:38:53.282Z,92.00
2019-03-20T04:41:33.020Z,92.10
2019-03-20T04:44:12.986Z,92.20
2019-03-20T04:46:53.091Z,92.00
2019-03-20T04:49:33.042Z,91.70
2019-03-20T04:52:14.324Z,91.70
2019-03-20T04:54:54.088Z,91.60
2019-03-20T04:57:33.887Z,91.50
2019-03-20T05:00:14.120Z,91.20
2019-03-20T05:02:53.929Z,91.20
2019-03-20T05:05:34.803Z,90.70
2019-03-20T05:08:14.282Z,90.70
2019-03-20T05:10:54.421Z,91.40
2019-03-20T05:13:34.715Z,92.10
2019-03-20T05:16:14.537Z,93.10
2019-03-20T05:21:39.386Z,93.10
2019-03-20T05:24:18.725Z,93.20
2019-03-20T05:26:59.507Z,93.10
2019-03-20T05:29:40.107Z,92.60
2019-03-20T05:32:20.113Z,92.50
2019-03-20T05:35:00.350Z,92.60
2019-03-20T05:37:40.578Z,92.40
2019-03-20T05:40:20.337Z,92.30
2019-03-20T05:43:00.251Z,92.50
2019-03-20T05:45:40.453Z,92.40
2019-03-20T05:48:20.496Z,92.70
2019-03-20T05:51:00.438Z,93.10
2019-03-20T05:53:40.266Z,93.60
2019-03-20T05:56:21.169Z,92.60
2019-03-20T05:59:01.673Z,91.30
2019-03-20T06:01:41.104Z,90.90
2019-03-20T06:04:21.271Z,90.90
2019-03-20T06:07:01.427Z,91.40
2019-03-20T06:09:41.620Z,91.10
2019-03-20T06:12:21.341Z,91.10
2019-03-20T06:15:01.472Z,91.00
2019-03-20T06:17:41.738Z,89.00
2019-03-20T06:20:21.541Z,87.10
2019-03-20T06:23:01.976Z,86.80
2019-03-20T06:25:41.656Z,85.60
2019-03-20T06:28:22.173Z,84.30
2019-03-20T06:31:01.616Z,82.60
2019-03-20T06:33:41.772Z,82.40
2019-03-20T06:36:22.008Z,78.90
2019-03-20T06:39:02.088Z,79.10
2019-03-20T06:41:42.955Z,79.60
2019-03-20T06:44:23.038Z,79.20
2019-03-20T06:47:03.412Z,80.10
2019-03-20T06:49:43.497Z,79.10
2019-03-20T06:52:23.657Z,78.70
2019-03-20T06:55:03.278Z,78.60
2019-03-20T06:57:43.197Z,78.80
2019-03-20T07:00:23.099Z,78.10
2019-03-20T07:03:03.342Z,76.90
2019-03-20T07:05:43.191Z,78.00
2019-03-20T07:08:22.683Z,77.40
2019-03-20T07:11:02.659Z,74.00
2019-03-20T07:13:42.785Z,71.80
2019-03-20T07:16:22.854Z,71.60
2019-03-20T07:19:04.393Z,67.50
2019-03-20T07:21:44.377Z,65.40
2019-03-20T07:24:24.385Z,65.00
2019-03-20T07:29:51.504Z,65.80
2019-03-20T07:35:18.090Z,64.60
2019-03-20T07:37:57.481Z,63.90
2019-03-20T07:40:37.576Z,59.80
2019-03-20T07:43:17.379Z,59.60
2019-03-20T07:45:57.799Z,61.00
2019-03-20T07:48:37.421Z,61.50
2019-03-20T07:51:17.547Z,63.70
2019-03-20T07:53:57.603Z,64.80
2019-03-20T07:56:37.373Z,66.70
2019-03-20T07:59:17.372Z,63.10
2019-03-20T08:01:57.528Z,63.20
2019-03-20T08:04:37.181Z,59.40
2019-03-20T08:07:17.253Z,60.50
2019-03-20T08:09:57.570Z,58.70
2019-03-20T08:12:37.693Z,59.40
2019-03-20T08:15:17.691Z,57.50
2019-03-20T08:17:57.930Z,57.70
2019-03-20T08:20:38.501Z,56.20
2019-03-20T08:23:06.565Z,56.70
2019-03-20T08:25:53.096Z,54.20
2019-03-20T08:28:33.129Z,54.70
2019-03-20T08:31:13.255Z,56.00
2019-03-20T08:33:53.300Z,56.40
2019-03-20T08:36:33.679Z,56.10
2019-03-20T08:39:13.266Z,56.30
2019-03-20T08:41:53.607Z,55.00
2019-03-20T08:47:14.362Z,50.00
2019-03-20T08:49:55.457Z,48.90
2019-03-20T08:55:27.419Z,46.90
2019-03-20T08:58:20.428Z,44.40
2019-03-20T09:00:59.835Z,47.80
2019-03-20T09:03:40.507Z,45.50
2019-03-20T09:06:20.253Z,46.90
2019-03-20T09:09:00.297Z,49.40
2019-03-20T09:11:40.224Z,46.50
2019-03-20T09:14:20.634Z,43.20
2019-03-20T09:17:00.531Z,41.90
2019-03-20T09:19:41.400Z,42.30
2019-03-20T09:22:21.828Z,43.70
2019-03-20T09:25:01.467Z,43.40
2019-03-20T09:27:41.590Z,44.00
2019-03-20T09:30:21.611Z,43.30
2019-03-20T09:33:01.885Z,46.30
2019-03-20T09:35:41.935Z,46.10
2019-03-20T09:38:22.112Z,44.70
2019-03-20T09:41:02.116Z,43.20
2019-03-20T09:43:42.676Z,43.70
2019-03-20T09:46:22.476Z,43.00
2019-03-20T09:49:02.608Z,43.40
2019-03-20T09:54:22.601Z,40.70
2019-03-20T09:57:02.970Z,41.20
2019-03-20T09:59:45.871Z,40.90
2019-03-20T10:02:25.076Z,38.50
2019-03-20T10:05:05.534Z,38.00
2019-03-20T10:07:45.185Z,37.90
2019-03-20T10:10:25.143Z,37.70
2019-03-20T10:13:05.236Z,36.30
2019-03-20T10:15:45.841Z,36.30
2019-03-20T10:18:25.763Z,34.70
2019-03-20T10:21:05.628Z,35.40
2019-03-20T10:23:45.795Z,34.30
2019-03-20T10:26:26.528Z,33.40
2019-03-20T10:29:06.626Z,33.10
2019-03-20T10:31:46.250Z,33.50
2019-03-20T10:34:26.459Z,35.50
2019-03-20T10:37:06.404Z,34.10
2019-03-20T10:39:46.906Z,35.20
2019-03-20T10:42:26.831Z,35.40
2019-03-20T10:45:06.989Z,34.60
2019-03-20T10:47:46.863Z,35.30
2019-03-20T10:50:28.263Z,32.80
2019-03-20T10:53:08.072Z,32.10
2019-03-20T10:55:48.101Z,32.30
2019-03-20T10:58:28.009Z,30.90
2019-03-20T11:01:07.927Z,28.70
2019-03-20T11:03:52.031Z,28.80
2019-03-20T11:06:30.280Z,28.50
2019-03-20T11:09:18.691Z,28.30
2019-03-20T11:12:18.809Z,27.80
2019-03-20T11:14:58.993Z,25.60
2019-03-20T11:17:38.822Z,27.60
2019-03-20T11:20:18.591Z,26.20
2019-03-20T11:22:58.180Z,28.80
2019-03-20T11:25:38.217Z,28.50
2019-03-20T11:28:17.908Z,30.90
2019-03-20T11:30:58.206Z,30.30
2019-03-20T11:33:39.484Z,29.80
2019-03-20T11:36:19.821Z,28.50
2019-03-20T11:38:59.496Z,29.20
2019-03-20T11:41:39.749Z,27.90
2019-03-20T11:44:19.595Z,27.20
2019-03-20T11:46:59.729Z,25.40
2019-03-20T11:49:39.720Z,25.70
2019-03-20T11:52:19.732Z,25.30
2019-03-20T11:55:00.087Z,25.90
2019-03-20T11:57:40.283Z,26.60
2019-03-20T12:00:20.049Z,28.20
2019-03-20T12:03:04.259Z,30.00
2019-03-20T12:05:44.699Z,30.50
2019-03-20T12:08:26.044Z,30.90
2019-03-20T12:11:06.866Z,30.80
2019-03-20T12:13:47.113Z,28.30
2019-03-20T12:16:27.304Z,27.60
2019-03-20T12:19:07.192Z,27.10
2019-03-20T12:21:47.196Z,24.20
2019-03-20T12:24:31.000Z,25.30
2019-03-20T12:27:15.445Z,24.00
2019-03-20T12:29:53.473Z,22.90
2019-03-20T12:32:34.283Z,24.00
2019-03-20T12:35:14.078Z,23.20
2019-03-20T12:37:54.171Z,24.00
2019-03-20T12:40:33.987Z,25.20
2019-03-20T12:43:14.089Z,24.60
2019-03-20T12:45:54.321Z,25.30
2019-03-20T12:48:34.631Z,23.60
2019-03-20T12:51:14.340Z,25.10
2019-03-20T12:53:54.382Z,23.90
2019-03-20T12:56:35.360Z,26.40
2019-03-20T12:59:15.456Z,25.30
2019-03-20T13:01:55.351Z,23.70
2019-03-20T13:04:35.358Z,24.60
2019-03-20T13:07:15.273Z,24.70
2019-03-20T13:10:03.028Z,25.90
2019-03-20T13:12:37.446Z,28.80
2019-03-20T13:15:17.340Z,28.40
2019-03-20T13:17:57.833Z,27.60
2019-03-20T13:20:37.968Z,26.00
2019-03-20T13:23:18.482Z,25.80
2019-03-20T13:26:00.820Z,25.30
2019-03-20T13:28:40.810Z,24.60
2019-03-20T13:31:20.823Z,23.40
2019-03-20T13:34:01.561Z,22.90
2019-03-20T13:36:41.493Z,23.10
2019-03-20T13:39:21.307Z,23.30
2019-03-20T13:42:01.233Z,23.60
2019-03-20T13:44:41.709Z,23.20
2019-03-20T13:47:09.118Z,22.60
2019-03-20T13:49:56.212Z,22.50
2019-03-20T13:52:36.258Z,22.40
2019-03-20T13:55:16.515Z,22.20
2019-03-20T13:57:56.601Z,21.50
2019-03-20T14:00:36.437Z,21.80
2019-03-20T14:03:16.443Z,22.30
2019-03-20T14:05:56.893Z,22.90
2019-03-20T14:08:36.700Z,24.10
2019-03-20T14:11:16.948Z,23.00
2019-03-20T14:13:56.955Z,23.40
2019-03-20T14:16:37.243Z,22.90
2019-03-20T14:19:17.275Z,22.10
2019-03-20T14:21:57.233Z,23.60
2019-03-20T14:24:37.487Z,25.40
2019-03-20T14:27:18.191Z,26.50
2019-03-20T14:29:59.108Z,27.50
2019-03-20T14:32:46.005Z,25.10
2019-03-20T14:35:25.536Z,25.30
2019-03-20T14:38:05.295Z,24.90
2019-03-20T14:43:25.019Z,23.70
2019-03-20T14:46:05.716Z,23.90
2019-03-20T14:48:45.062Z,23.60
2019-03-20T14:51:25.077Z,23.40
2019-03-20T14:54:05.592Z,23.40
2019-03-20T14:56:46.201Z,23.20
2019-03-20T14:59:26.458Z,23.70
2019-03-20T15:02:06.557Z,24.00
2019-03-20T15:04:46.647Z,24.30
2019-03-20T15:07:26.775Z,23.80
2019-03-20T15:10:06.880Z,24.20
2019-03-20T15:12:46.878Z,23.70
2019-03-20T15:15:27.175Z,23.50
2019-03-20T15:18:07.656Z,23.60
2019-03-20T15:20:47.755Z,23.50
2019-03-20T15:23:27.765Z,23.50
2019-03-20T15:26:08.134Z,24.80
2019-03-20T15:28:48.223Z,24.10
2019-03-20T15:31:27.825Z,24.80
2019-03-20T15:34:07.631Z,25.30
2019-03-20T15:36:47.839Z,26.40
2019-03-20T15:39:31.351Z,26.20
2019-03-20T15:42:10.926Z,27.40
2019-03-20T15:44:50.754Z,27.60
2019-03-20T15:47:30.740Z,26.90
2019-03-20T15:50:10.516Z,26.50
2019-03-20T15:52:50.447Z,26.10
2019-03-20T15:55:30.585Z,26.30
2019-03-20T15:58:10.943Z,26.80
2019-03-20T16:00:51.228Z,26.70
2019-03-20T16:03:31.577Z,27.20
2019-03-20T16:06:11.308Z,28.60
2019-03-20T16:08:50.919Z,28.30
2019-03-20T16:11:31.339Z,28.60
2019-03-20T16:14:11.040Z,27.80
2019-03-20T16:16:50.720Z,28.70
2019-03-20T16:19:30.709Z,28.60
2019-03-20T16:22:10.847Z,28.80
2019-03-20T16:24:52.846Z,28.90
2019-03-20T16:27:32.922Z,28.80
2019-03-20T16:30:12.975Z,29.70
2019-03-20T16:32:56.263Z,30.70
2019-03-20T16:35:35.721Z,30.90
2019-03-20T16:38:15.901Z,31.60
2019-03-20T16:40:56.089Z,32.40
2019-03-20T16:43:35.949Z,32.00
2019-03-20T16:46:17.084Z,32.20
2019-03-20T16:48:57.081Z,32.40
2019-03-20T16:51:36.914Z,32.90
2019-03-20T16:54:17.023Z,33.60
2019-03-20T16:56:56.975Z,34.90
2019-03-20T16:59:37.163Z,35.80
2019-03-20T17:02:16.873Z,37.40
2019-03-20T17:04:57.426Z,39.70
2019-03-20T17:07:37.073Z,41.60
2019-03-20T17:10:17.392Z,42.40
2019-03-20T17:12:57.495Z,43.60
2019-03-20T17:15:37.738Z,44.90
2019-03-20T17:18:17.732Z,46.30
2019-03-20T17:20:58.025Z,46.90
2019-03-20T17:23:38.689Z,47.20
2019-03-20T17:26:18.524Z,48.00
2019-03-20T17:29:08.398Z,48.60
2019-03-20T17:31:40.374Z,49.30
2019-03-20T17:34:20.422Z,50.00
2019-03-20T17:37:00.625Z,50.60
2019-03-20T17:39:40.484Z,50.90
2019-03-20T17:42:20.577Z,51.30
2019-03-20T17:45:00.414Z,51.40
2019-03-20T17:47:40.976Z,51.60
2019-03-20T17:50:20.908Z,51.70
2019-03-20T17:53:01.047Z,52.50
2019-03-20T17:55:42.166Z,52.30
2019-03-20T17:58:22.250Z,52.90
2019-03-20T18:01:02.244Z,53.40
2019-03-20T18:03:42.395Z,54.10
2019-03-20T18:06:22.487Z,54.70
2019-03-20T18:09:03.656Z,55.50
2019-03-20T18:11:47.791Z,55.30
2019-03-20T18:14:26.739Z,55.10
2019-03-20T18:17:10.580Z,55.40
2019-03-20T18:19:51.816Z,55.50
2019-03-20T18:22:32.023Z,55.80
2019-03-20T18:25:12.343Z,56.10
2019-03-20T18:27:52.232Z,56.70
2019-03-20T18:30:31.770Z,57.20
2019-03-20T18:33:11.711Z,57.20
2019-03-20T18:35:51.382Z,57.30
2019-03-20T18:38:31.834Z,58.20
2019-03-20T18:41:11.554Z,58.60
2019-03-20T18:43:53.087Z,60.00
2019-03-20T18:46:31.687Z,60.90
2019-03-20T18:49:18.753Z,62.10
2019-03-20T18:51:58.875Z,62.60
2019-03-20T18:54:38.743Z,63.30
2019-03-20T18:57:18.534Z,63.80
2019-03-20T18:59:58.711Z,64.00
2019-03-20T19:02:38.688Z,64.20
2019-03-20T19:05:18.724Z,64.40
2019-03-20T19:07:58.405Z,66.00
2019-03-20T19:10:38.812Z,66.50
2019-03-20T19:13:18.528Z,67.10
2019-03-20T19:16:02.456Z,67.50
2019-03-20T19:18:42.804Z,67.90
2019-03-20T19:21:22.947Z,67.90
2019-03-20T19:24:02.868Z,67.90
2019-03-20T19:26:43.339Z,67.60
2019-03-20T19:29:23.005Z,67.90
2019-03-20T19:32:02.981Z,68.50
2019-03-20T19:34:43.053Z,69.20
2019-03-20T19:37:23.133Z,69.20
2019-03-20T19:40:03.223Z,69.90
2019-03-20T19:42:43.353Z,70.40
2019-03-20T19:45:23.356Z,70.50
2019-03-20T19:48:04.154Z,70.50
2019-03-20T19:50:43.683Z,70.40
2019-03-20T19:53:24.205Z,70.40
2019-03-20T19:56:03.704Z,70.70
2019-03-20T19:58:43.542Z,70.00
2019-03-20T20:01:23.911Z,70.10
2019-03-20T20:04:04.141Z,70.60
2019-03-20T20:06:43.569Z,70.80
2019-03-20T20:09:23.916Z,71.00
2019-03-20T20:12:03.972Z,71.30
2019-03-20T20:14:44.262Z,71.60
2019-03-20T20:17:24.461Z,72.50
2019-03-20T20:20:04.008Z,73.40
2019-03-20T20:22:44.221Z,73.90
2019-03-20T20:25:25.914Z,73.60
2019-03-20T20:27:54.209Z,73.40
2019-03-20T20:30:41.124Z,72.60
2019-03-20T20:33:21.315Z,72.30
2019-03-20T20:36:01.486Z,72.20
2019-03-20T20:38:41.253Z,72.70
2019-03-20T20:41:22.023Z,72.70
2019-03-20T20:44:01.864Z,72.60
2019-03-20T20:46:42.014Z,72.90
2019-03-20T20:49:22.018Z,73.00
2019-03-20T20:52:02.151Z,73.90
2019-03-20T20:54:42.415Z,74.30
2019-03-20T20:57:22.187Z,74.40
2019-03-20T21:00:02.313Z,75.60
2019-03-20T21:02:42.036Z,76.10
2019-03-20T21:05:23.392Z,76.10
2019-03-20T21:08:03.557Z,74.90
2019-03-20T21:10:43.661Z,73.00
2019-03-20T21:13:23.755Z,72.60
2019-03-20T21:16:03.671Z,71.60
2019-03-20T21:18:43.654Z,71.90
2019-03-20T21:21:26.801Z,70.70
2019-03-20T21:24:06.819Z,71.10
2019-03-20T21:26:47.045Z,72.30
2019-03-20T21:29:26.641Z,73.10
2019-03-20T21:32:06.879Z,74.10
2019-03-20T21:34:47.088Z,74.80
2019-03-20T21:37:27.010Z,75.40
2019-03-20T21:40:06.942Z,75.60
2019-03-20T21:42:47.663Z,75.60
2019-03-20T21:45:27.816Z,76.00
2019-03-20T21:48:08.323Z,76.00
2019-03-20T21:50:47.774Z,76.30
2019-03-20T21:53:27.820Z,76.30
2019-03-20T21:56:08.093Z,76.40
2019-03-20T21:58:47.883Z,76.10
2019-03-20T22:01:27.895Z,75.80
2019-03-20T22:04:07.796Z,75.70
2019-03-20T22:06:47.639Z,76.20
2019-03-20T22:09:27.437Z,76.10
2019-03-20T22:12:07.427Z,76.00
2019-03-20T22:14:46.735Z,76.20
2019-03-20T22:17:27.147Z,76.80
2019-03-20T22:20:06.832Z,77.40
2019-03-20T22:22:46.849Z,76.80
2019-03-20T22:25:26.767Z,76.80
2019-03-20T22:28:07.108Z,76.30
2019-03-20T22:30:46.946Z,76.10
2019-03-20T22:33:27.355Z,77.00
2019-03-20T22:35:59.522Z,77.20
2019-03-20T22:39:05.702Z,77.90
2019-03-20T22:41:46.760Z,78.00
2019-03-20T22:44:26.852Z,78.00
2019-03-20T22:47:07.810Z,78.60
2019-03-20T22:49:47.396Z,79.00
2019-03-20T22:52:27.388Z,79.00
2019-03-20T22:55:07.307Z,79.10
2019-03-20T22:57:51.047Z,78.80
2019-03-20T23:00:32.522Z,78.40
2019-03-20T23:03:13.699Z,78.30
2019-03-20T23:05:54.646Z,78.60
2019-03-20T23:08:34.947Z,78.80
2019-03-20T23:11:16.412Z,79.10
2019-03-20T23:13:56.354Z,79.20
2019-03-20T23:16:36.103Z,79.30
2019-03-20T23:19:16.332Z,79.30
2019-03-20T23:21:56.123Z,78.90
2019-03-20T23:24:36.067Z,79.10
2019-03-20T23:27:16.260Z,79.40
2019-03-20T23:29:56.549Z,79.80
2019-03-20T23:32:36.371Z,79.90
2019-03-20T23:35:16.225Z,79.80
2019-03-20T23:37:56.258Z,80.00
2019-03-20T23:40:36.281Z,79.60
2019-03-20T23:43:16.449Z,79.40
2019-03-20T23:45:56.869Z,79.60
2019-03-20T23:48:36.771Z,79.90
2019-03-20T23:51:16.582Z,79.70
2019-03-20T23:53:56.416Z,79.80
2019-03-20T23:56:37.969Z,79.60
2019-03-20T23:59:17.866Z,80.40
